createdAt,value
2018-01-12T00:00:17.524Z,44.08
2018-01-12T00:02:45.083Z,39.20
2018-01-12T00:05:12.653Z,40.92
2018-01-12T00:07:40.418Z,39.33
2018-01-12T00:10:08.007Z,42.60
2018-01-12T00:12:35.571Z,40.80
2018-01-12T00:15:03.138Z,40.60
2018-01-12T00:17:30.693Z,38.92
2018-01-12T00:19:58.262Z,40.92
2018-01-12T00:22:25.821Z,39.03
2018-01-12T00:24:54.142Z,42.22
2018-01-12T00:27:21.717Z,37.20
2018-01-12T00:29:49.288Z,39.80
2018-01-12T00:32:17.061Z,41.03
2018-01-12T00:34:44.641Z,39.42
2018-01-12T00:37:12.208Z,42.15
2018-01-12T00:39:39.783Z,35.78
2018-01-12T00:42:07.331Z,39.47
2018-01-12T00:44:34.911Z,39.53
2018-01-12T00:47:03.242Z,39.38
2018-01-12T00:49:30.813Z,39.55
2018-01-12T00:51:58.454Z,40.22
2018-01-12T00:54:25.969Z,40.47
2018-01-12T00:56:53.541Z,37.63
2018-01-12T00:59:21.104Z,41.55
2018-01-12T01:01:48.681Z,38.92
2018-01-12T01:04:17.016Z,39.88
2018-01-12T01:06:44.585Z,41.15
2018-01-12T01:09:12.158Z,41.30
2018-01-12T01:11:39.738Z,39.83
2018-01-12T01:14:08.109Z,37.85
2018-01-12T01:16:35.662Z,37.22
2018-01-12T01:19:03.999Z,38.30
2018-01-12T01:21:31.549Z,37.33
2018-01-12T01:23:59.296Z,38.75
2018-01-12T01:26:27.611Z,40.15
2018-01-12T01:28:55.154Z,42.17
2018-01-12T01:31:22.746Z,41.35
2018-01-12T01:33:50.309Z,46.20
2018-01-12T01:36:17.881Z,44.28
2018-01-12T01:38:45.531Z,47.67
2018-01-12T01:41:13.140Z,51.17
2018-01-12T01:43:40.721Z,58.10
2018-01-12T01:46:08.304Z,67.45
2018-01-12T01:48:41.795Z,57.20
2018-01-12T01:51:09.340Z,56.65
2018-01-12T01:53:37.669Z,49.50
2018-01-12T01:56:05.218Z,53.83
2018-01-12T01:58:32.873Z,63.85
2018-01-12T02:01:00.437Z,61.15
2018-01-12T02:03:28.093Z,65.10
2018-01-12T02:05:55.652Z,61.67
2018-01-12T02:08:23.230Z,54.75
2018-01-12T02:10:50.822Z,62.00
2018-01-12T02:13:18.497Z,56.10
2018-01-12T02:15:46.055Z,51.42
2018-01-12T02:18:13.633Z,54.20
2018-01-12T02:20:41.961Z,49.33
2018-01-12T02:23:09.525Z,44.03
2018-01-12T02:25:37.081Z,41.47
2018-01-12T02:28:04.662Z,41.55
2018-01-12T02:30:32.251Z,43.17
2018-01-12T02:32:59.791Z,41.63
2018-01-12T02:35:27.368Z,43.78
2018-01-12T02:37:54.921Z,41.37
2018-01-12T02:40:22.602Z,41.70
2018-01-12T02:42:50.160Z,40.97
2018-01-12T02:45:17.709Z,43.97
2018-01-12T02:47:46.038Z,43.28
2018-01-12T02:50:13.602Z,44.30
2018-01-12T02:52:41.176Z,41.00
2018-01-12T02:55:08.796Z,40.12
2018-01-12T02:57:37.130Z,41.83
2018-01-12T03:00:04.686Z,46.22
2018-01-12T03:02:32.250Z,43.17
2018-01-12T03:04:59.826Z,45.55
2018-01-12T03:07:27.393Z,45.47
2018-01-12T03:09:55.293Z,44.45
2018-01-12T03:12:22.845Z,46.37
2018-01-12T03:14:50.425Z,44.63
2018-01-12T03:17:18.759Z,44.25
2018-01-12T03:19:46.333Z,46.05
2018-01-12T03:22:13.918Z,43.75
2018-01-12T03:24:41.540Z,45.25
2018-01-12T03:27:09.099Z,45.30
2018-01-12T03:29:36.690Z,46.17
2018-01-12T03:32:04.235Z,47.25
2018-01-12T03:34:31.878Z,46.58
2018-01-12T03:36:59.417Z,46.45
2018-01-12T03:39:26.989Z,45.63
2018-01-12T03:41:54.546Z,42.10
2018-01-12T03:44:22.302Z,47.53
2018-01-12T03:46:51.643Z,46.92
2018-01-12T03:49:19.221Z,47.58
2018-01-12T03:51:46.972Z,46.60
2018-01-12T03:54:14.670Z,46.67
2018-01-12T03:56:42.261Z,51.83
2018-01-12T03:59:10.598Z,52.30
2018-01-12T04:01:38.157Z,52.67
2018-01-12T04:04:05.730Z,54.45
2018-01-12T04:06:33.287Z,58.20
2018-01-12T04:09:01.770Z,54.85
2018-01-12T04:11:29.354Z,55.72
2018-01-12T04:13:57.877Z,55.53
2018-01-12T04:16:25.441Z,57.75
2018-01-12T04:18:52.986Z,56.72
2018-01-12T04:21:20.557Z,66.68
2018-01-12T04:23:48.123Z,59.00
2018-01-12T04:26:16.609Z,60.60
2018-01-12T04:28:44.169Z,61.60
2018-01-12T04:31:11.750Z,58.15
2018-01-12T04:33:39.319Z,57.88
2018-01-12T04:36:06.865Z,56.78
2018-01-12T04:38:34.427Z,56.83
2018-01-12T04:41:02.010Z,59.00
2018-01-12T04:43:29.576Z,58.22
2018-01-12T04:45:57.169Z,59.58
2018-01-12T04:48:25.508Z,56.78
2018-01-12T04:50:53.101Z,59.08
2018-01-12T04:53:20.707Z,59.47
2018-01-12T04:55:48.253Z,57.88
2018-01-12T04:58:15.832Z,60.47
2018-01-12T05:00:43.380Z,63.05
2018-01-12T05:03:10.940Z,60.42
2018-01-12T05:05:38.527Z,57.83
2018-01-12T05:08:06.110Z,63.08
2018-01-12T05:10:33.697Z,58.87
2018-01-12T05:13:01.309Z,59.25
2018-01-12T05:15:28.865Z,58.67
2018-01-12T05:17:56.429Z,58.97
2018-01-12T05:20:23.998Z,60.88
2018-01-12T05:22:51.570Z,61.13
2018-01-12T05:25:19.163Z,57.45
2018-01-12T05:27:46.762Z,57.88
2018-01-12T05:30:14.331Z,57.65
2018-01-12T05:32:41.899Z,55.67
2018-01-12T05:35:09.475Z,56.35
2018-01-12T05:37:37.037Z,57.47
2018-01-12T05:40:04.602Z,60.25
2018-01-12T05:42:32.167Z,58.35
2018-01-12T05:44:59.856Z,56.08
2018-01-12T05:47:27.415Z,55.08
2018-01-12T05:49:55.006Z,56.55
2018-01-12T05:52:23.337Z,59.60
2018-01-12T05:54:51.085Z,59.80
2018-01-12T05:57:18.683Z,58.35
2018-01-12T05:59:46.246Z,64.05
2018-01-12T06:02:25.780Z,62.92
2018-01-12T06:05:05.294Z,66.20
2018-01-12T06:07:32.861Z,58.97
2018-01-12T06:10:00.653Z,62.47
2018-01-12T06:12:28.215Z,57.20
2018-01-12T06:14:55.807Z,57.03
2018-01-12T06:17:24.141Z,58.08
2018-01-12T06:19:51.786Z,57.00
2018-01-12T06:22:19.362Z,58.22
2018-01-12T06:24:46.927Z,52.95
2018-01-12T06:27:14.546Z,55.53
2018-01-12T06:29:42.137Z,56.40
2018-01-12T06:32:09.723Z,54.80
2018-01-12T06:34:37.295Z,54.90
2018-01-12T06:37:04.864Z,61.30
2018-01-12T06:39:32.522Z,59.50
2018-01-12T06:42:00.102Z,58.38
2018-01-12T06:44:28.447Z,58.85
2018-01-12T06:46:56.042Z,55.53
2018-01-12T06:49:23.772Z,56.45
2018-01-12T06:51:51.375Z,56.97
2018-01-12T06:54:19.699Z,55.38
2018-01-12T06:56:47.290Z,52.45
2018-01-12T06:59:14.942Z,51.75
2018-01-12T07:01:42.499Z,52.95
2018-01-12T07:04:10.091Z,50.28
2018-01-12T07:06:38.412Z,51.55
2018-01-12T07:09:05.970Z,49.63
2018-01-12T07:11:33.600Z,52.00
2018-01-12T07:14:01.169Z,51.67
2018-01-12T07:16:28.752Z,54.45
2018-01-12T07:18:56.336Z,53.25
2018-01-12T07:21:36.403Z,52.28
2018-01-12T07:24:03.987Z,54.78
2018-01-12T07:26:31.604Z,54.85
2018-01-12T07:28:59.164Z,60.30
2018-01-12T07:31:26.713Z,58.58
2018-01-12T07:33:54.280Z,60.00
2018-01-12T07:36:21.830Z,63.13
2018-01-12T07:38:49.394Z,62.90
2018-01-12T07:41:17.738Z,61.97
2018-01-12T07:43:45.310Z,63.20
2018-01-12T07:46:12.881Z,61.67
2018-01-12T07:48:41.210Z,64.80
2018-01-12T07:51:08.821Z,62.72
2018-01-12T07:53:36.389Z,63.90
2018-01-12T07:56:04.809Z,62.17
2018-01-12T07:58:32.385Z,62.88
2018-01-12T08:01:05.846Z,67.97
2018-01-12T08:03:34.175Z,83.97
2018-01-12T08:06:01.747Z,78.00
2018-01-12T08:08:29.290Z,74.53
2018-01-12T08:10:56.846Z,77.00
2018-01-12T08:13:24.428Z,67.32
2018-01-12T08:15:51.980Z,67.55
2018-01-12T08:18:19.567Z,67.07
2018-01-12T08:20:47.138Z,67.10
2018-01-12T08:23:14.680Z,67.40
2018-01-12T08:25:42.253Z,67.15
2018-01-12T08:28:09.797Z,65.70
2018-01-12T08:30:37.381Z,63.28
2018-01-12T08:33:04.944Z,61.20
2018-01-12T08:35:32.549Z,62.15
2018-01-12T08:38:00.106Z,60.78
2018-01-12T08:40:27.690Z,56.60
2018-01-12T08:42:55.379Z,56.97
2018-01-12T08:45:22.949Z,64.10
2018-01-12T08:47:50.529Z,58.67
2018-01-12T08:50:18.853Z,60.95
2018-01-12T08:52:46.485Z,56.28
2018-01-12T08:55:14.075Z,60.90
2018-01-12T08:57:41.718Z,58.65
2018-01-12T09:00:09.293Z,55.63
2018-01-12T09:02:36.846Z,56.55
2018-01-12T09:05:04.456Z,57.75
2018-01-12T09:07:32.013Z,50.78
2018-01-12T09:09:59.568Z,49.10
2018-01-12T09:12:27.133Z,52.70
2018-01-12T09:14:54.753Z,51.30
2018-01-12T09:17:34.054Z,53.05
2018-01-12T09:20:13.481Z,49.50
2018-01-12T09:22:47.840Z,50.33
2018-01-12T09:25:22.990Z,49.28
2018-01-12T09:27:50.577Z,49.58
2018-01-12T09:30:18.856Z,53.15
2018-01-12T09:32:50.183Z,52.20
2018-01-12T09:35:17.781Z,51.67
2018-01-12T09:37:45.277Z,49.80
2018-01-12T09:40:25.509Z,50.88
2018-01-12T09:42:53.085Z,48.95
2018-01-12T09:45:21.454Z,48.13
2018-01-12T09:48:01.794Z,45.70
2018-01-12T09:50:29.387Z,47.38
2018-01-12T09:52:56.982Z,45.40
2018-01-12T09:55:25.317Z,46.50
2018-01-12T09:57:53.184Z,46.53
2018-01-12T10:00:27.717Z,46.45
2018-01-12T10:02:55.289Z,48.42
2018-01-12T10:05:22.842Z,46.08
2018-01-12T10:08:05.268Z,47.00
2018-01-12T10:10:32.815Z,44.15
2018-01-12T10:13:00.361Z,47.42
2018-01-12T10:15:27.929Z,49.03
2018-01-12T10:17:56.397Z,47.22
2018-01-12T10:20:36.608Z,44.13
2018-01-12T10:23:04.925Z,46.22
2018-01-12T10:25:32.496Z,48.80
2018-01-12T10:28:00.056Z,45.88
2018-01-12T10:30:33.068Z,46.80
2018-01-12T10:33:08.636Z,50.67
2018-01-12T10:35:54.990Z,48.42
2018-01-12T10:38:23.294Z,48.65
2018-01-12T10:40:53.745Z,48.25
2018-01-12T10:43:21.431Z,50.75
2018-01-12T10:46:01.513Z,51.33
2018-01-12T10:51:37.749Z,50.22
2018-01-12T10:54:06.093Z,54.08
2018-01-12T10:56:33.674Z,54.53
2018-01-12T10:59:01.244Z,54.55
2018-01-12T11:01:29.545Z,53.20
2018-01-12T11:03:57.901Z,52.20
2018-01-12T11:06:25.627Z,54.25
2018-01-12T11:08:53.204Z,52.90
2018-01-12T11:11:20.781Z,56.30
2018-01-12T11:13:48.352Z,57.17
2018-01-12T11:16:15.936Z,52.25
2018-01-12T11:18:44.287Z,50.20
2018-01-12T11:21:11.957Z,50.65
2018-01-12T11:23:39.534Z,52.67
2018-01-12T11:26:07.196Z,49.55
2018-01-12T11:28:34.772Z,50.60
2018-01-12T11:31:02.399Z,51.75
2018-01-12T11:33:29.978Z,50.83
2018-01-12T11:35:57.538Z,50.58
2018-01-12T11:38:25.885Z,49.80
2018-01-12T11:40:53.489Z,50.85
2018-01-12T11:43:21.069Z,48.80
2018-01-12T11:45:49.445Z,48.80
2018-01-12T11:48:17.802Z,50.33
2018-01-12T11:50:48.878Z,52.55
2018-01-12T11:53:16.681Z,50.30
2018-01-12T11:55:44.335Z,48.90
2018-01-12T11:58:11.893Z,49.15
2018-01-12T12:00:39.509Z,53.03
2018-01-12T12:03:07.091Z,50.47
2018-01-12T12:05:35.462Z,50.50
2018-01-12T12:08:03.809Z,53.80
2018-01-12T12:10:31.413Z,55.55
2018-01-12T12:12:59.728Z,56.10
2018-01-12T12:15:27.362Z,56.08
2018-01-12T12:17:54.936Z,54.30
2018-01-12T12:20:22.710Z,55.63
2018-01-12T12:22:50.380Z,53.60
2018-01-12T12:25:18.005Z,54.65
2018-01-12T12:27:45.575Z,51.60
2018-01-12T12:30:13.997Z,53.10
2018-01-12T12:32:41.578Z,58.80
2018-01-12T12:35:09.153Z,55.95
2018-01-12T12:37:36.719Z,55.30
2018-01-12T12:40:04.289Z,56.33
2018-01-12T12:42:31.844Z,54.70
2018-01-12T12:44:59.422Z,57.00
2018-01-12T12:47:27.788Z,53.95
2018-01-12T12:49:55.365Z,57.88
2018-01-12T12:52:23.690Z,55.30
2018-01-12T12:54:51.274Z,53.42
2018-01-12T12:57:18.866Z,56.75
2018-01-12T12:59:47.293Z,57.03
2018-01-12T13:02:14.866Z,56.00
2018-01-12T13:04:43.421Z,55.15
2018-01-12T13:07:11.265Z,53.85
2018-01-12T13:09:38.799Z,56.40
2018-01-12T13:12:06.861Z,55.38
2018-01-12T13:14:34.480Z,54.05
2018-01-12T13:17:02.105Z,56.40
2018-01-12T13:19:29.678Z,57.33
2018-01-12T13:21:57.220Z,56.50
2018-01-12T13:24:24.834Z,56.63
2018-01-12T13:26:52.417Z,55.45
2018-01-12T13:29:19.989Z,55.92
2018-01-12T13:31:47.561Z,56.97
2018-01-12T13:34:15.125Z,57.92
2018-01-12T13:36:42.746Z,57.22
2018-01-12T13:39:10.309Z,55.30
2018-01-12T13:41:37.889Z,55.17
2018-01-12T13:44:05.450Z,57.72
2018-01-12T13:46:33.078Z,56.63
2018-01-12T13:49:01.442Z,57.42
2018-01-12T13:51:29.021Z,59.17
2018-01-12T13:53:57.353Z,58.08
2018-01-12T13:56:24.946Z,57.03
2018-01-12T13:58:52.497Z,57.40
2018-01-12T14:01:20.096Z,57.85
2018-01-12T14:03:48.551Z,54.72
2018-01-12T14:06:16.125Z,53.20
2018-01-12T14:08:44.515Z,56.33
2018-01-12T14:11:12.845Z,57.05
2018-01-12T14:13:40.401Z,54.30
2018-01-12T14:16:08.000Z,54.33
2018-01-12T14:18:35.577Z,48.92
2018-01-12T14:21:03.941Z,52.22
2018-01-12T14:23:31.501Z,50.08
2018-01-12T14:25:59.848Z,52.67
2018-01-12T14:28:27.527Z,54.03
2018-01-12T14:30:55.144Z,53.38
2018-01-12T14:33:22.723Z,56.37
2018-01-12T14:35:50.280Z,51.17
2018-01-12T14:38:17.847Z,54.75
2018-01-12T14:40:45.412Z,53.55
2018-01-12T14:43:13.124Z,54.75
2018-01-12T14:45:41.467Z,55.25
2018-01-12T14:48:09.041Z,50.90
2018-01-12T14:50:36.661Z,49.67
2018-01-12T14:53:05.011Z,54.78
2018-01-12T14:55:32.628Z,54.00
2018-01-12T14:58:00.402Z,55.97
2018-01-12T15:00:28.053Z,52.72
2018-01-12T15:02:55.617Z,58.00
2018-01-12T15:05:23.385Z,56.70
2018-01-12T15:07:50.933Z,60.20
2018-01-12T15:10:18.509Z,53.85
2018-01-12T15:12:46.174Z,51.25
2018-01-12T15:15:13.749Z,52.70
2018-01-12T15:17:41.340Z,51.10
2018-01-12T15:20:08.906Z,52.92
2018-01-12T15:22:36.504Z,55.53
2018-01-12T15:25:04.065Z,51.40
2018-01-12T15:27:31.745Z,53.17
2018-01-12T15:29:59.321Z,53.17
2018-01-12T15:32:26.885Z,52.33
2018-01-12T15:34:54.507Z,53.40
2018-01-12T15:37:22.822Z,51.17
2018-01-12T15:39:50.396Z,58.30
2018-01-12T15:42:18.009Z,49.85
2018-01-12T15:44:46.364Z,48.85
2018-01-12T15:47:13.930Z,55.10
2018-01-12T15:49:41.513Z,53.38
2018-01-12T15:52:09.845Z,52.22
2018-01-12T15:54:37.568Z,50.67
2018-01-12T15:57:05.138Z,54.95
2018-01-12T15:59:32.718Z,53.15
2018-01-12T16:02:00.269Z,50.03
2018-01-12T16:04:27.879Z,53.22
2018-01-12T16:06:55.428Z,59.30
2018-01-12T16:09:23.104Z,57.20
2018-01-12T16:11:50.646Z,55.15
2018-01-12T16:14:18.308Z,55.75
2018-01-12T16:16:45.884Z,58.30
2018-01-12T16:19:13.466Z,55.65
2018-01-12T16:21:41.065Z,58.60
2018-01-12T16:24:08.668Z,59.25
2018-01-12T16:26:36.221Z,52.75
2018-01-12T16:29:03.782Z,50.40
2018-01-12T16:31:31.487Z,52.88
2018-01-12T16:33:59.821Z,54.35
2018-01-12T16:36:27.429Z,55.60
2018-01-12T16:38:55.022Z,51.72
2018-01-12T16:41:22.602Z,55.70
2018-01-12T16:43:50.205Z,54.30
2018-01-12T16:46:25.492Z,55.08
2018-01-12T16:48:53.434Z,55.17
2018-01-12T16:51:21.093Z,55.85
2018-01-12T16:53:49.454Z,58.72
2018-01-12T16:56:17.244Z,54.42
2018-01-12T16:58:45.802Z,56.50
2018-01-12T17:01:13.544Z,57.30
2018-01-12T17:03:41.110Z,55.50
2018-01-12T17:06:08.721Z,54.45
2018-01-12T17:08:36.621Z,56.63
2018-01-12T17:11:04.214Z,53.20
2018-01-12T17:13:31.970Z,58.45
2018-01-12T17:15:59.590Z,60.97
2018-01-12T17:18:28.015Z,56.80
2018-01-12T17:20:55.636Z,55.03
2018-01-12T17:23:23.348Z,60.38
2018-01-12T17:25:51.030Z,58.92
2018-01-12T17:28:19.370Z,58.50
2018-01-12T17:30:46.954Z,57.78
2018-01-12T17:33:14.534Z,54.28
2018-01-12T17:35:42.109Z,62.50
2018-01-12T17:38:09.686Z,57.35
2018-01-12T17:40:37.334Z,58.15
2018-01-12T17:43:05.753Z,65.70
2018-01-12T17:45:34.053Z,63.28
2018-01-12T17:48:01.618Z,62.85
2018-01-12T17:50:29.245Z,67.05
2018-01-12T17:52:56.813Z,65.53
2018-01-12T17:55:24.372Z,66.50
2018-01-12T17:57:52.097Z,68.93
2018-01-12T18:00:19.657Z,70.70
2018-01-12T18:02:47.254Z,70.37
2018-01-12T18:05:14.852Z,67.12
2018-01-12T18:07:42.517Z,67.47
2018-01-12T18:10:10.105Z,67.43
2018-01-12T18:12:37.835Z,61.25
2018-01-12T18:15:05.465Z,65.90
2018-01-12T18:17:33.799Z,71.18
2018-01-12T18:20:01.366Z,71.72
2018-01-12T18:22:29.697Z,71.47
2018-01-12T18:24:58.049Z,70.10
2018-01-12T18:27:25.722Z,68.50
2018-01-12T18:29:53.358Z,67.68
2018-01-12T18:32:21.168Z,66.22
2018-01-12T18:34:49.714Z,62.50
2018-01-12T18:37:17.353Z,68.00
2018-01-12T18:39:45.061Z,65.05
2018-01-12T18:42:12.700Z,59.60
2018-01-12T18:44:40.293Z,65.57
2018-01-12T18:47:07.982Z,61.47
2018-01-12T18:49:35.716Z,64.05
2018-01-12T18:52:03.314Z,64.57
2018-01-12T18:54:30.924Z,61.35
2018-01-12T18:56:58.508Z,57.92
2018-01-12T18:59:26.969Z,59.15
2018-01-12T19:01:54.613Z,62.35
2018-01-12T19:04:22.574Z,56.45
2018-01-12T19:06:50.208Z,59.83
2018-01-12T19:09:18.680Z,62.13
2018-01-12T19:11:46.285Z,55.38
2018-01-12T19:14:13.881Z,59.03
2018-01-12T19:16:41.603Z,56.35
2018-01-12T19:19:09.303Z,57.35
2018-01-12T19:21:37.076Z,60.58
2018-01-12T19:24:04.686Z,54.78
2018-01-12T19:26:33.618Z,53.75
2018-01-12T19:29:01.251Z,58.55
2018-01-12T19:31:28.876Z,55.60
2018-01-12T19:33:56.691Z,56.55
2018-01-12T19:36:24.287Z,55.08
2018-01-12T19:38:52.050Z,55.25
2018-01-12T19:41:19.643Z,56.28
2018-01-12T19:43:48.083Z,55.65
2018-01-12T19:46:16.326Z,57.53
2018-01-12T19:48:44.041Z,57.30
2018-01-12T19:51:11.605Z,58.40
2018-01-12T19:53:39.177Z,59.70
2018-01-12T19:56:06.759Z,56.75
2018-01-12T19:58:35.183Z,56.37
2018-01-12T20:01:02.896Z,55.42
2018-01-12T20:03:30.562Z,64.97
2018-01-12T20:05:58.980Z,59.28
2018-01-12T20:08:26.557Z,58.28
2018-01-12T20:10:54.198Z,57.13
2018-01-12T20:13:22.188Z,59.05
2018-01-12T20:15:49.801Z,60.17
2018-01-12T20:18:17.711Z,55.92
2018-01-12T20:20:45.478Z,60.25
2018-01-12T20:23:13.654Z,64.68
2018-01-12T20:25:41.763Z,56.45
2018-01-12T20:28:10.752Z,63.60
2018-01-12T20:30:38.455Z,67.10
2018-01-12T20:33:06.992Z,65.00
2018-01-12T20:35:34.931Z,62.20
2018-01-12T20:38:02.526Z,59.83
2018-01-12T20:40:30.182Z,59.83
2018-01-12T20:42:57.760Z,66.75
2018-01-12T20:45:25.441Z,60.22
2018-01-12T20:47:53.016Z,60.92
2018-01-12T20:50:21.955Z,63.83
2018-01-12T20:52:49.576Z,60.03
2018-01-12T20:55:17.227Z,58.63
2018-01-12T20:57:45.213Z,57.45
2018-01-12T21:00:12.810Z,55.17
2018-01-12T21:02:40.450Z,58.00
2018-01-12T21:05:08.819Z,55.85
2018-01-12T21:07:37.186Z,58.97
2018-01-12T21:10:04.750Z,53.63
2018-01-12T21:12:32.400Z,56.22
2018-01-12T21:15:00.055Z,55.60
2018-01-12T21:17:29.153Z,56.40
2018-01-12T21:19:56.758Z,55.75
2018-01-12T21:22:25.098Z,53.28
2018-01-12T21:24:52.705Z,54.47
2018-01-12T21:27:20.335Z,48.00
2018-01-12T21:29:48.036Z,50.22
2018-01-12T21:32:16.494Z,49.38
2018-01-12T21:34:44.850Z,47.53
2018-01-12T21:37:13.539Z,48.33
2018-01-12T21:39:42.296Z,45.88
2018-01-12T21:42:09.901Z,47.33
2018-01-12T21:44:37.489Z,47.50
2018-01-12T21:47:05.202Z,46.15
2018-01-12T21:49:32.792Z,44.92
2018-01-12T21:52:00.355Z,45.03
2018-01-12T21:54:28.011Z,41.35
2018-01-12T21:56:55.651Z,42.75
2018-01-12T21:59:23.302Z,40.85
2018-01-12T22:01:50.857Z,43.78
2018-01-12T22:04:18.786Z,41.95
2018-01-12T22:06:46.414Z,38.35
2018-01-12T22:09:14.105Z,41.35
2018-01-12T22:11:41.743Z,39.92
2018-01-12T22:14:09.314Z,39.25
2018-01-12T22:16:36.901Z,41.22
2018-01-12T22:19:04.664Z,37.50
2018-01-12T22:21:32.271Z,37.72
2018-01-12T22:23:59.857Z,40.63
2018-01-12T22:26:27.436Z,38.97
2018-01-12T22:28:55.080Z,40.53
2018-01-12T22:31:22.690Z,41.58
2018-01-12T22:33:50.302Z,44.97
2018-01-12T22:36:17.883Z,45.03
2018-01-12T22:38:45.467Z,41.00
2018-01-12T22:41:13.825Z,42.97
2018-01-12T22:43:41.391Z,47.05
2018-01-12T22:46:09.003Z,45.08
2018-01-12T22:48:37.331Z,42.22
2018-01-12T22:51:04.941Z,42.97
2018-01-12T22:53:33.276Z,41.15
2018-01-12T22:56:00.899Z,41.35
2018-01-12T22:58:28.489Z,38.53
2018-01-12T23:00:56.074Z,41.83
2018-01-12T23:03:23.710Z,40.58
2018-01-12T23:05:51.282Z,42.55
2018-01-12T23:08:18.873Z,42.60
2018-01-12T23:10:46.437Z,38.65
2018-01-12T23:13:14.024Z,41.45
2018-01-12T23:15:42.365Z,37.58
2018-01-12T23:18:09.941Z,43.17
2018-01-12T23:20:37.521Z,39.35
2018-01-12T23:23:05.935Z,41.83
2018-01-12T23:25:33.626Z,44.20
2018-01-12T23:28:01.202Z,40.15
2018-01-12T23:30:28.986Z,41.13
2018-01-12T23:32:56.573Z,41.40
2018-01-12T23:35:24.928Z,43.87
2018-01-12T23:37:52.604Z,43.83
2018-01-12T23:40:20.275Z,41.30
2018-01-12T23:42:48.706Z,41.65
2018-01-12T23:45:17.329Z,42.72
2018-01-12T23:47:45.898Z,41.78
2018-01-12T23:50:13.681Z,40.40
2018-01-12T23:52:41.538Z,36.83
2018-01-12T23:55:09.905Z,39.20
2018-01-12T23:57:37.546Z,39.70
